Terminal Aerodrome Forecast
Issued by NWS Corpus Christi, TX

Home | Current Version | Previous Version | Text Only | Print | Product List | Glossary On
Versions: 1 2 3 4 5 6 7 8 9 10 11 12 13 14 15 16 17
000
FTUS44 KCRP 161700 AAA
TAFVCT
TAF AMD
KVCT 161759Z 1618/1718 15014G20KT P6SM FEW040
     FM170700 12007KT P6SM OVC015
      TEMPO 1708/1712 3SM BR=

USA.gov is the U.S. government's official web portal to all federal, state and local government web resources and services.